Superfun — ZCCL5 — position and weather

sailwx.info

Track history (hours):
 
Tides and Currents Weather Stations Pressure Air Temp Water Temp Dewpoint Dewpoint Depression Visibility Wind Speed Wind Dir Waves Ship Positions

Superfun

Last reported at 2015-Sep-01 17:33 UTC. Time now 2015-Sep-01 18:14 UTC.
Position N 44°25' E 008°50'.

Length 40 m.

Type: Other ship. MMSI: 319163000.

Date/timePositionNaut miles runAvg speedWind from/ knotsBaromVisibWave heightAir tempDewpointWater temp
2015-Sep-01 17:33N 44°25' E 008°50'0 0.0
2015-Sep-01 16:30N 44°25' E 008°50'0 0.0
2015-Sep-01 15:33N 44°25' E 008°50'0 0.0
2015-Sep-01 14:33N 44°25' E 008°50'0 0.0
2015-Sep-01 13:30N 44°25' E 008°50'0 0.0
2015-Sep-01 12:33N 44°25' E 008°50'0 0.0
2015-Sep-01 11:27N 44°25' E 008°50'0 0.0
2015-Sep-01 10:33N 44°25' E 008°50'0 0.0
2015-Sep-01 09:33N 44°25' E 008°50'0 0.0
2015-Sep-01 08:33N 44°25' E 008°50'0 0.0
2015-Sep-01 07:33N 44°25' E 008°50'0 0.0
2015-Sep-01 06:33N 44°25' E 008°50'0 0.0
2015-Sep-01 05:21N 44°25' E 008°50'0 0.0
2015-Sep-01 04:33N 44°25' E 008°50'0 0.0
2015-Sep-01 03:33N 44°25' E 008°50'0 0.0
2015-Sep-01 02:30N 44°25' E 008°50'0 0.0
2015-Sep-01 01:29N 44°25' E 008°50'0 0.0
2015-Sep-01 00:27N 44°25' E 008°50'0 0.0
2015-Aug-31 23:26N 44°25' E 008°50'0 0.0
2015-Aug-31 22:32N 44°25' E 008°50'0 0.0
2015-Aug-31 21:31N 44°25' E 008°50'0 0.0
2015-Aug-31 20:31N 44°25' E 008°50'0 0.0
2015-Aug-31 19:31N 44°25' E 008°50'0 0.0
2015-Aug-31 18:31N 44°25' E 008°50'1 1.4
2015-Aug-31 17:33N 44°25' E 008°48'9 8.6
2015-Aug-31 16:34N 44°18' E 008°41'9 8.6
2015-Aug-31 15:33N 44°12' E 008°33'59 6.6
2015-Aug-31 06:33N 43°42' E 007°22'1 0.8
2015-Aug-31 05:29N 43°41' E 007°21'0 0.0
2015-Aug-31 01:23N 43°41' E 007°21'0 0.0
2015-Aug-31 00:17N 43°41' E 007°21'0 0.0
2015-Aug-30 23:17N 43°41' E 007°21'0 0.0
2015-Aug-30 22:29N 43°41' E 007°21'0 0.0
2015-Aug-30 19:11N 43°41' E 007°21'0 0.0
2015-Aug-30 18:29N 43°41' E 007°21'0 0.0
2015-Aug-30 17:23N 43°41' E 007°21'0 0.0
2015-Aug-30 15:29N 43°41' E 007°21'0 0.0
2015-Aug-30 14:29N 43°41' E 007°21'0 0.0
2015-Aug-30 12:23N 43°41' E 007°21'0 0.0
2015-Aug-30 11:05N 43°41' E 007°21'0 0.0
2015-Aug-30 10:23N 43°41' E 007°21'0 0.0
2015-Aug-30 09:23N 43°41' E 007°21'0 0.0
2015-Aug-30 04:29N 43°41' E 007°21'0 0.0
2015-Aug-30 03:23N 43°41' E 007°21'0 0.0
2015-Aug-30 02:29N 43°41' E 007°21'0 0.0
2015-Aug-30 01:23N 43°41' E 007°21'0 0.0
2015-Aug-30 00:17N 43°41' E 007°21'0 0.0
2015-Aug-29 21:29N 43°41' E 007°21'0 0.0
2015-Aug-29 20:29N 43°41' E 007°21'0 0.0
2015-Aug-29 19:11N 43°41' E 007°21'0 0.0
2015-Aug-29 18:29N 43°41' E 007°21'0 0.0
2015-Aug-29 15:05N 43°41' E 007°21'0 0.0
2015-Aug-29 14:17N 43°41' E 007°21'0 0.0
2015-Aug-29 13:17N 43°41' E 007°21'0 0.0
2015-Aug-29 10:29N 43°41' E 007°21'0 0.0
2015-Aug-29 09:29N 43°41' E 007°21'0 0.0
2015-Aug-29 08:29N 43°41' E 007°21'0 0.0
2015-Aug-29 05:23N 43°41' E 007°21'0 0.0
2015-Aug-29 04:29N 43°41' E 007°21'0 0.0
2015-Aug-29 03:23N 43°41' E 007°21'0 0.0
2015-Aug-29 02:29N 43°41' E 007°21'0 0.0
2015-Aug-29 01:11N 43°41' E 007°21'0 0.0
2015-Aug-28 20:29N 43°41' E 007°21'0 0.0
2015-Aug-28 19:23N 43°41' E 007°21'0 0.0
2015-Aug-28 17:17N 43°41' E 007°21'0 0.0
2015-Aug-28 16:29N 43°41' E 007°21'0 0.0
2015-Aug-28 13:23N 43°41' E 007°21'0 0.0
2015-Aug-28 11:23N 43°41' E 007°21'0 0.0
2015-Aug-28 10:29N 43°41' E 007°21'0 0.0
2015-Aug-28 09:29N 43°41' E 007°21'0 0.0
2015-Aug-28 05:29N 43°41' E 007°21'0 0.0
2015-Aug-28 04:05N 43°41' E 007°21'0 0.0
2015-Aug-28 03:23N 43°41' E 007°21'0 0.0
2015-Aug-28 01:05N 43°41' E 007°21'0 0.0
2015-Aug-28 00:28N 43°41' E 007°21'0 0.0
2015-Aug-27 23:16N 43°41' E 007°21'0 0.0
2015-Aug-27 22:17N 43°41' E 007°21'0 0.0
2015-Aug-27 21:22N 43°41' E 007°21'0 0.0
2015-Aug-27 20:04N 43°41' E 007°21'0 0.0
2015-Aug-27 18:28N 43°41' E 007°21'0 0.0
2015-Aug-27 17:10N 43°41' E 007°21'0 0.0
2015-Aug-27 16:17N 43°41' E 007°21'0 0.0
2015-Aug-27 12:28N 43°41' E 007°21'0 0.0
2015-Aug-27 11:22N 43°41' E 007°21'0 0.0
2015-Aug-27 10:28N 43°41' E 007°21'0 0.0
2015-Aug-27 09:23N 43°41' E 007°21'0 0.0
2015-Aug-27 08:22N 43°41' E 007°21'0 0.0
2015-Aug-27 05:28N 43°41' E 007°21'0 0.0
2015-Aug-27 04:04N 43°41' E 007°21'0 0.0
2015-Aug-27 03:22N 43°41' E 007°21'0 0.0
2015-Aug-27 02:28N 43°41' E 007°21'0 0.0
2015-Aug-27 01:16N 43°41' E 007°21'0 0.0
2015-Aug-27 00:28N 43°41' E 007°21'0 0.0
2015-Aug-26 23:22N 43°41' E 007°21'0 0.0
2015-Aug-26 21:16N 43°41' E 007°21'0 0.0
2015-Aug-26 20:22N 43°41' E 007°21'0 0.0
2015-Aug-26 18:28N 43°41' E 007°21'0 0.0
2015-Aug-26 17:22N 43°41' E 007°21'0 0.0
2015-Aug-26 16:28N 43°41' E 007°21'0 0.0
2015-Aug-26 15:28N 43°41' E 007°21'0 0.0
2015-Aug-26 14:22N 43°41' E 007°21'0 0.0
2015-Aug-26 12:16N 43°41' E 007°21'0 0.0
2015-Aug-26 10:04N 43°41' E 007°21'0 0.0
2015-Aug-26 08:28N 43°41' E 007°21'0 0.0
2015-Aug-26 07:28N 43°41' E 007°21'0 0.0
2015-Aug-26 06:10N 43°41' E 007°21'0 0.0
2015-Aug-26 00:28N 43°41' E 007°21'0 0.0
2015-Aug-25 23:22N 43°41' E 007°21'0 0.0
2015-Aug-25 22:28N 43°41' E 007°21'0 0.0
2015-Aug-25 21:28N 43°41' E 007°21'0 0.0
2015-Aug-25 19:22N 43°41' E 007°21'0 0.0
2015-Aug-25 18:22N 43°41' E 007°21'0 0.0
2015-Aug-25 17:10N 43°41' E 007°21'0 0.0
2015-Aug-25 09:22N 43°41' E 007°21'0 0.0
2015-Aug-25 07:28N 43°41' E 007°21'0 0.0
2015-Aug-25 06:04N 43°41' E 007°21'0 0.0
2015-Aug-25 04:28N 43°41' E 007°21'0 0.0
2015-Aug-25 01:28N 43°41' E 007°21'1 0.7
2015-Aug-25 00:32N 43°41' E 007°21'2 0.8
2015-Aug-24 22:33N 43°42' E 007°19'0 0.0
2015-Aug-24 21:33N 43°42' E 007°19'0 0.0
2015-Aug-24 19:27N 43°42' E 007°19'0 0.0
2015-Aug-24 18:33N 43°42' E 007°19'0 0.0
2015-Aug-24 16:33N 43°42' E 007°19'  
Track history (hours):
 
Tides and Currents Weather Stations Pressure Air Temp Water Temp Dewpoint Dewpoint Depression Visibility Wind Speed Wind Dir Waves Ship Positions

Superfun

Last reported at 2015-Sep-01 17:33 UTC. Time now 2015-Sep-01 18:14 UTC.
Position N 44°25' E 008°50'.

Length 40 m.

Type: Other ship. MMSI: 319163000.

Date/timePositionNaut miles runAvg speedWind from/ knotsBaromVisibWave heightAir tempDewpointWater temp
2015-Sep-01 17:33N 44°25' E 008°50'0 0.0
2015-Sep-01 16:30N 44°25' E 008°50'0 0.0
2015-Sep-01 15:33N 44°25' E 008°50'0 0.0
2015-Sep-01 14:33N 44°25' E 008°50'0 0.0
2015-Sep-01 13:30N 44°25' E 008°50'0 0.0
2015-Sep-01 12:33N 44°25' E 008°50'0 0.0
2015-Sep-01 11:27N 44°25' E 008°50'0 0.0
2015-Sep-01 10:33N 44°25' E 008°50'0 0.0
2015-Sep-01 09:33N 44°25' E 008°50'0 0.0
2015-Sep-01 08:33N 44°25' E 008°50'0 0.0
2015-Sep-01 07:33N 44°25' E 008°50'0 0.0
2015-Sep-01 06:33N 44°25' E 008°50'0 0.0
2015-Sep-01 05:21N 44°25' E 008°50'0 0.0
2015-Sep-01 04:33N 44°25' E 008°50'0 0.0
2015-Sep-01 03:33N 44°25' E 008°50'0 0.0
2015-Sep-01 02:30N 44°25' E 008°50'0 0.0
2015-Sep-01 01:29N 44°25' E 008°50'0 0.0
2015-Sep-01 00:27N 44°25' E 008°50'0 0.0
2015-Aug-31 23:26N 44°25' E 008°50'0 0.0
2015-Aug-31 22:32N 44°25' E 008°50'0 0.0
2015-Aug-31 21:31N 44°25' E 008°50'0 0.0
2015-Aug-31 20:31N 44°25' E 008°50'0 0.0
2015-Aug-31 19:31N 44°25' E 008°50'0 0.0
2015-Aug-31 18:31N 44°25' E 008°50'1 1.4
2015-Aug-31 17:33N 44°25' E 008°48'9 8.6
2015-Aug-31 16:34N 44°18' E 008°41'9 8.6
2015-Aug-31 15:33N 44°12' E 008°33'59 6.6
2015-Aug-31 06:33N 43°42' E 007°22'1 0.8
2015-Aug-31 05:29N 43°41' E 007°21'0 0.0
2015-Aug-31 01:23N 43°41' E 007°21'0 0.0
2015-Aug-31 00:17N 43°41' E 007°21'0 0.0
2015-Aug-30 23:17N 43°41' E 007°21'0 0.0
2015-Aug-30 22:29N 43°41' E 007°21'0 0.0
2015-Aug-30 19:11N 43°41' E 007°21'0 0.0
2015-Aug-30 18:29N 43°41' E 007°21'0 0.0
2015-Aug-30 17:23N 43°41' E 007°21'0 0.0
2015-Aug-30 15:29N 43°41' E 007°21'0 0.0
2015-Aug-30 14:29N 43°41' E 007°21'0 0.0
2015-Aug-30 12:23N 43°41' E 007°21'0 0.0
2015-Aug-30 11:05N 43°41' E 007°21'0 0.0
2015-Aug-30 10:23N 43°41' E 007°21'0 0.0
2015-Aug-30 09:23N 43°41' E 007°21'0 0.0
2015-Aug-30 04:29N 43°41' E 007°21'0 0.0
2015-Aug-30 03:23N 43°41' E 007°21'0 0.0
2015-Aug-30 02:29N 43°41' E 007°21'0 0.0
2015-Aug-30 01:23N 43°41' E 007°21'0 0.0
2015-Aug-30 00:17N 43°41' E 007°21'0 0.0
2015-Aug-29 21:29N 43°41' E 007°21'0 0.0
2015-Aug-29 20:29N 43°41' E 007°21'0 0.0
2015-Aug-29 19:11N 43°41' E 007°21'0 0.0
2015-Aug-29 18:29N 43°41' E 007°21'0 0.0
2015-Aug-29 15:05N 43°41' E 007°21'0 0.0
2015-Aug-29 14:17N 43°41' E 007°21'0 0.0
2015-Aug-29 13:17N 43°41' E 007°21'0 0.0
2015-Aug-29 10:29N 43°41' E 007°21'0 0.0
2015-Aug-29 09:29N 43°41' E 007°21'0 0.0
2015-Aug-29 08:29N 43°41' E 007°21'0 0.0
2015-Aug-29 05:23N 43°41' E 007°21'0 0.0
2015-Aug-29 04:29N 43°41' E 007°21'0 0.0
2015-Aug-29 03:23N 43°41' E 007°21'0 0.0
2015-Aug-29 02:29N 43°41' E 007°21'0 0.0
2015-Aug-29 01:11N 43°41' E 007°21'0 0.0
2015-Aug-28 20:29N 43°41' E 007°21'0 0.0
2015-Aug-28 19:23N 43°41' E 007°21'0 0.0
2015-Aug-28 17:17N 43°41' E 007°21'0 0.0
2015-Aug-28 16:29N 43°41' E 007°21'0 0.0
2015-Aug-28 13:23N 43°41' E 007°21'0 0.0
2015-Aug-28 11:23N 43°41' E 007°21'0 0.0
2015-Aug-28 10:29N 43°41' E 007°21'0 0.0
2015-Aug-28 09:29N 43°41' E 007°21'0 0.0
2015-Aug-28 05:29N 43°41' E 007°21'0 0.0
2015-Aug-28 04:05N 43°41' E 007°21'0 0.0
2015-Aug-28 03:23N 43°41' E 007°21'0 0.0
2015-Aug-28 01:05N 43°41' E 007°21'0 0.0
2015-Aug-28 00:28N 43°41' E 007°21'0 0.0
2015-Aug-27 23:16N 43°41' E 007°21'0 0.0
2015-Aug-27 22:17N 43°41' E 007°21'0 0.0
2015-Aug-27 21:22N 43°41' E 007°21'0 0.0
2015-Aug-27 20:04N 43°41' E 007°21'0 0.0
2015-Aug-27 18:28N 43°41' E 007°21'0 0.0
2015-Aug-27 17:10N 43°41' E 007°21'0 0.0
2015-Aug-27 16:17N 43°41' E 007°21'0 0.0
2015-Aug-27 12:28N 43°41' E 007°21'0 0.0
2015-Aug-27 11:22N 43°41' E 007°21'0 0.0
2015-Aug-27 10:28N 43°41' E 007°21'0 0.0
2015-Aug-27 09:23N 43°41' E 007°21'0 0.0
2015-Aug-27 08:22N 43°41' E 007°21'0 0.0
2015-Aug-27 05:28N 43°41' E 007°21'0 0.0
2015-Aug-27 04:04N 43°41' E 007°21'0 0.0
2015-Aug-27 03:22N 43°41' E 007°21'0 0.0
2015-Aug-27 02:28N 43°41' E 007°21'0 0.0
2015-Aug-27 01:16N 43°41' E 007°21'0 0.0
2015-Aug-27 00:28N 43°41' E 007°21'0 0.0
2015-Aug-26 23:22N 43°41' E 007°21'0 0.0
2015-Aug-26 21:16N 43°41' E 007°21'0 0.0
2015-Aug-26 20:22N 43°41' E 007°21'0 0.0
2015-Aug-26 18:28N 43°41' E 007°21'0 0.0
2015-Aug-26 17:22N 43°41' E 007°21'0 0.0
2015-Aug-26 16:28N 43°41' E 007°21'0 0.0
2015-Aug-26 15:28N 43°41' E 007°21'0 0.0
2015-Aug-26 14:22N 43°41' E 007°21'0 0.0
2015-Aug-26 12:16N 43°41' E 007°21'0 0.0
2015-Aug-26 10:04N 43°41' E 007°21'0 0.0
2015-Aug-26 08:28N 43°41' E 007°21'0 0.0
2015-Aug-26 07:28N 43°41' E 007°21'0 0.0
2015-Aug-26 06:10N 43°41' E 007°21'0 0.0
2015-Aug-26 00:28N 43°41' E 007°21'0 0.0
2015-Aug-25 23:22N 43°41' E 007°21'0 0.0
2015-Aug-25 22:28N 43°41' E 007°21'0 0.0
2015-Aug-25 21:28N 43°41' E 007°21'0 0.0
2015-Aug-25 19:22N 43°41' E 007°21'0 0.0
2015-Aug-25 18:22N 43°41' E 007°21'0 0.0
2015-Aug-25 17:10N 43°41' E 007°21'0 0.0
2015-Aug-25 09:22N 43°41' E 007°21'0 0.0
2015-Aug-25 07:28N 43°41' E 007°21'0 0.0
2015-Aug-25 06:04N 43°41' E 007°21'0 0.0
2015-Aug-25 04:28N 43°41' E 007°21'0 0.0
2015-Aug-25 01:28N 43°41' E 007°21'1 0.7
2015-Aug-25 00:32N 43°41' E 007°21'2 0.8
2015-Aug-24 22:33N 43°42' E 007°19'0 0.0
2015-Aug-24 21:33N 43°42' E 007°19'0 0.0
2015-Aug-24 19:27N 43°42' E 007°19'0 0.0
2015-Aug-24 18:33N 43°42' E 007°19'0 0.0
2015-Aug-24 16:33N 43°42' E 007°19'  

Dump ship's entire track history